sensor_id;sensor_type;location;lat;lon;timestamp;P1;durP1;ratioP1;P2;durP2;ratioP2
14078;SDS011;7115;50.150;8.568;2022-12-26T00:00:27;7.33;;;4.90;;
14078;SDS011;7115;50.150;8.568;2022-12-26T00:02:54;7.27;;;4.83;;
14078;SDS011;7115;50.150;8.568;2022-12-26T00:05:21;7.03;;;4.73;;
14078;SDS011;7115;50.150;8.568;2022-12-26T00:07:49;7.53;;;4.30;;
14078;SDS011;7115;50.150;8.568;2022-12-26T00:10:16;7.47;;;4.43;;
14078;SDS011;7115;50.150;8.568;2022-12-26T00:12:43;6.80;;;4.50;;
14078;SDS011;7115;50.150;8.568;2022-12-26T00:15:10;7.80;;;4.50;;
14078;SDS011;7115;50.150;8.568;2022-12-26T00:17:36;8.23;;;4.53;;
14078;SDS011;7115;50.150;8.568;2022-12-26T00:20:04;7.23;;;4.20;;
14078;SDS011;7115;50.150;8.568;2022-12-26T00:22:31;6.87;;;4.33;;
14078;SDS011;7115;50.150;8.568;2022-12-26T00:25:01;6.27;;;3.97;;
14078;SDS011;7115;50.150;8.568;2022-12-26T00:27:28;5.80;;;4.10;;
14078;SDS011;7115;50.150;8.568;2022-12-26T00:29:54;5.37;;;3.90;;
14078;SDS011;7115;50.150;8.568;2022-12-26T00:32:21;8.07;;;4.20;;
14078;SDS011;7115;50.150;8.568;2022-12-26T00:34:48;7.27;;;4.27;;
14078;SDS011;7115;50.150;8.568;2022-12-26T00:37:15;5.43;;;3.27;;
14078;SDS011;7115;50.150;8.568;2022-12-26T00:39:42;7.63;;;3.63;;
14078;SDS011;7115;50.150;8.568;2022-12-26T00:42:10;5.50;;;3.23;;
14078;SDS011;7115;50.150;8.568;2022-12-26T00:44:37;5.37;;;3.77;;
14078;SDS011;7115;50.150;8.568;2022-12-26T00:47:04;8.60;;;3.83;;
14078;SDS011;7115;50.150;8.568;2022-12-26T00:49:31;7.07;;;3.20;;
14078;SDS011;7115;50.150;8.568;2022-12-26T00:52:18;5.10;;;4.03;;
14078;SDS011;7115;50.150;8.568;2022-12-26T00:54:45;6.03;;;3.73;;
14078;SDS011;7115;50.150;8.568;2022-12-26T00:57:13;5.37;;;3.67;;
14078;SDS011;7115;50.150;8.568;2022-12-26T00:59:40;4.80;;;4.03;;
14078;SDS011;7115;50.150;8.568;2022-12-26T01:02:06;5.67;;;3.63;;
14078;SDS011;7115;50.150;8.568;2022-12-26T01:04:53;4.43;;;3.40;;
14078;SDS011;7115;50.150;8.568;2022-12-26T01:07:20;10.47;;;3.87;;
14078;SDS011;7115;50.150;8.568;2022-12-26T01:09:47;5.43;;;3.83;;
14078;SDS011;7115;50.150;8.568;2022-12-26T01:12:16;4.90;;;3.30;;
14078;SDS011;7115;50.150;8.568;2022-12-26T01:14:43;5.77;;;3.83;;
14078;SDS011;7115;50.150;8.568;2022-12-26T01:17:09;5.70;;;3.53;;
14078;SDS011;7115;50.150;8.568;2022-12-26T01:19:36;5.07;;;3.40;;
14078;SDS011;7115;50.150;8.568;2022-12-26T01:22:03;7.10;;;3.90;;
14078;SDS011;7115;50.150;8.568;2022-12-26T01:24:30;5.40;;;3.17;;
14078;SDS011;7115;50.150;8.568;2022-12-26T01:26:57;5.53;;;3.23;;
14078;SDS011;7115;50.150;8.568;2022-12-26T01:29:25;5.33;;;3.10;;
14078;SDS011;7115;50.150;8.568;2022-12-26T01:31:52;5.03;;;3.30;;
14078;SDS011;7115;50.150;8.568;2022-12-26T01:34:19;5.10;;;3.13;;
14078;SDS011;7115;50.150;8.568;2022-12-26T01:36:46;4.63;;;3.13;;
14078;SDS011;7115;50.150;8.568;2022-12-26T01:39:13;5.30;;;3.27;;
14078;SDS011;7115;50.150;8.568;2022-12-26T01:41:40;5.83;;;3.20;;
14078;SDS011;7115;50.150;8.568;2022-12-26T01:47:08;4.83;;;3.03;;
14078;SDS011;7115;50.150;8.568;2022-12-26T01:49:36;5.03;;;2.50;;
14078;SDS011;7115;50.150;8.568;2022-12-26T01:52:10;2.97;;;2.60;;
14078;SDS011;7115;50.150;8.568;2022-12-26T01:54:41;5.00;;;2.43;;
14078;SDS011;7115;50.150;8.568;2022-12-26T01:57:14;3.40;;;2.70;;
14078;SDS011;7115;50.150;8.568;2022-12-26T01:59:44;7.40;;;2.43;;
14078;SDS011;7115;50.150;8.568;2022-12-26T02:02:14;3.93;;;2.50;;
14078;SDS011;7115;50.150;8.568;2022-12-26T02:04:42;4.77;;;2.70;;
14078;SDS011;7115;50.150;8.568;2022-12-26T02:07:31;5.83;;;2.60;;
14078;SDS011;7115;50.150;8.568;2022-12-26T02:10:00;7.10;;;2.83;;
14078;SDS011;7115;50.150;8.568;2022-12-26T02:12:28;6.33;;;2.70;;
14078;SDS011;7115;50.150;8.568;2022-12-26T02:15:03;5.90;;;2.90;;
14078;SDS011;7115;50.150;8.568;2022-12-26T02:17:33;3.43;;;2.60;;
14078;SDS011;7115;50.150;8.568;2022-12-26T02:20:00;4.47;;;3.00;;
14078;SDS011;7115;50.150;8.568;2022-12-26T02:22:40;4.17;;;2.67;;
14078;SDS011;7115;50.150;8.568;2022-12-26T02:28:47;4.43;;;2.90;;
14078;SDS011;7115;50.150;8.568;2022-12-26T02:31:24;3.23;;;2.13;;
14078;SDS011;7115;50.150;8.568;2022-12-26T02:33:59;4.73;;;2.87;;
14078;SDS011;7115;50.150;8.568;2022-12-26T02:36:33;5.93;;;2.83;;
14078;SDS011;7115;50.150;8.568;2022-12-26T02:39:21;4.73;;;2.50;;
14078;SDS011;7115;50.150;8.568;2022-12-26T02:42:13;4.97;;;2.70;;
14078;SDS011;7115;50.150;8.568;2022-12-26T02:44:51;5.73;;;2.30;;
14078;SDS011;7115;50.150;8.568;2022-12-26T02:47:43;5.97;;;2.37;;
14078;SDS011;7115;50.150;8.568;2022-12-26T02:50:22;5.37;;;2.93;;
14078;SDS011;7115;50.150;8.568;2022-12-26T02:53:15;4.60;;;3.00;;
14078;SDS011;7115;50.150;8.568;2022-12-26T02:56:05;3.77;;;2.60;;
14078;SDS011;7115;50.150;8.568;2022-12-26T02:58:57;4.43;;;2.70;;
14078;SDS011;7115;50.150;8.568;2022-12-26T03:02:04;6.80;;;3.07;;
14078;SDS011;7115;50.150;8.568;2022-12-26T03:05:19;3.00;;;2.37;;
14078;SDS011;7115;50.150;8.568;2022-12-26T03:08:08;5.83;;;2.80;;
14078;SDS011;7115;50.150;8.568;2022-12-26T03:11:01;3.80;;;2.40;;
14078;SDS011;7115;50.150;8.568;2022-12-26T03:13:47;3.43;;;2.53;;
14078;SDS011;7115;50.150;8.568;2022-12-26T03:16:17;5.20;;;3.00;;
14078;SDS011;7115;50.150;8.568;2022-12-26T03:19:05;5.43;;;3.30;;
14078;SDS011;7115;50.150;8.568;2022-12-26T03:21:38;5.67;;;2.77;;
14078;SDS011;7115;50.150;8.568;2022-12-26T03:24:08;4.63;;;2.60;;
14078;SDS011;7115;50.150;8.568;2022-12-26T03:26:37;7.57;;;2.97;;
14078;SDS011;7115;50.150;8.568;2022-12-26T03:29:13;4.77;;;2.80;;
14078;SDS011;7115;50.150;8.568;2022-12-26T03:32:00;5.30;;;3.10;;
14078;SDS011;7115;50.150;8.568;2022-12-26T03:34:29;4.50;;;2.43;;
14078;SDS011;7115;50.150;8.568;2022-12-26T03:40:18;6.17;;;3.07;;
14078;SDS011;7115;50.150;8.568;2022-12-26T03:43:13;4.87;;;3.00;;
14078;SDS011;7115;50.150;8.568;2022-12-26T03:46:09;4.07;;;2.40;;
14078;SDS011;7115;50.150;8.568;2022-12-26T03:49:01;6.73;;;3.00;;
14078;SDS011;7115;50.150;8.568;2022-12-26T03:51:54;8.07;;;3.13;;
14078;SDS011;7115;50.150;8.568;2022-12-26T03:54:45;4.77;;;2.60;;
14078;SDS011;7115;50.150;8.568;2022-12-26T03:57:38;5.13;;;2.67;;
14078;SDS011;7115;50.150;8.568;2022-12-26T04:00:27;8.00;;;2.80;;
14078;SDS011;7115;50.150;8.568;2022-12-26T04:03:15;5.37;;;3.00;;
14078;SDS011;7115;50.150;8.568;2022-12-26T04:06:03;3.77;;;2.83;;
14078;SDS011;7115;50.150;8.568;2022-12-26T04:08:53;4.87;;;2.53;;
14078;SDS011;7115;50.150;8.568;2022-12-26T04:11:52;3.40;;;2.30;;
14078;SDS011;7115;50.150;8.568;2022-12-26T04:14:41;3.30;;;2.57;;
14078;SDS011;7115;50.150;8.568;2022-12-26T04:17:32;5.07;;;2.97;;
14078;SDS011;7115;50.150;8.568;2022-12-26T04:20:23;4.63;;;3.10;;
14078;SDS011;7115;50.150;8.568;2022-12-26T04:22:55;7.73;;;2.90;;
14078;SDS011;7115;50.150;8.568;2022-12-26T04:25:45;5.93;;;2.60;;
14078;SDS011;7115;50.150;8.568;2022-12-26T04:28:34;4.80;;;2.80;;
14078;SDS011;7115;50.150;8.568;2022-12-26T04:31:22;6.13;;;2.53;;
14078;SDS011;7115;50.150;8.568;2022-12-26T04:34:14;9.50;;;3.10;;
14078;SDS011;7115;50.150;8.568;2022-12-26T04:37:04;3.20;;;2.50;;
14078;SDS011;7115;50.150;8.568;2022-12-26T04:39:55;3.37;;;2.60;;
14078;SDS011;7115;50.150;8.568;2022-12-26T04:42:42;5.37;;;2.77;;
14078;SDS011;7115;50.150;8.568;2022-12-26T04:45:50;4.67;;;2.77;;
14078;SDS011;7115;50.150;8.568;2022-12-26T04:48:17;4.23;;;2.47;;
14078;SDS011;7115;50.150;8.568;2022-12-26T04:51:03;5.00;;;2.97;;
14078;SDS011;7115;50.150;8.568;2022-12-26T04:53:30;5.57;;;2.77;;
14078;SDS011;7115;50.150;8.568;2022-12-26T04:55:58;5.60;;;2.73;;
14078;SDS011;7115;50.150;8.568;2022-12-26T04:58:24;6.00;;;2.77;;
14078;SDS011;7115;50.150;8.568;2022-12-26T05:00:53;3.50;;;2.20;;
14078;SDS011;7115;50.150;8.568;2022-12-26T05:03:40;6.13;;;2.93;;
14078;SDS011;7115;50.150;8.568;2022-12-26T05:06:25;7.10;;;2.97;;
14078;SDS011;7115;50.150;8.568;2022-12-26T05:09:11;4.57;;;2.43;;
14078;SDS011;7115;50.150;8.568;2022-12-26T05:12:01;3.80;;;2.73;;
14078;SDS011;7115;50.150;8.568;2022-12-26T05:14:29;3.30;;;2.50;;
14078;SDS011;7115;50.150;8.568;2022-12-26T05:16:58;5.50;;;2.50;;
14078;SDS011;7115;50.150;8.568;2022-12-26T05:19:43;5.07;;;2.87;;
14078;SDS011;7115;50.150;8.568;2022-12-26T05:22:30;4.13;;;2.30;;
14078;SDS011;7115;50.150;8.568;2022-12-26T05:25:18;4.43;;;2.47;;
14078;SDS011;7115;50.150;8.568;2022-12-26T05:28:07;4.73;;;2.13;;
14078;SDS011;7115;50.150;8.568;2022-12-26T05:30:54;2.93;;;2.50;;
14078;SDS011;7115;50.150;8.568;2022-12-26T05:33:22;5.00;;;2.43;;
14078;SDS011;7115;50.150;8.568;2022-12-26T05:36:08;3.03;;;2.30;;
14078;SDS011;7115;50.150;8.568;2022-12-26T05:38:36;4.50;;;2.60;;
14078;SDS011;7115;50.150;8.568;2022-12-26T05:41:03;3.43;;;2.50;;
14078;SDS011;7115;50.150;8.568;2022-12-26T05:43:30;6.17;;;2.43;;
14078;SDS011;7115;50.150;8.568;2022-12-26T05:45:57;5.33;;;2.30;;
14078;SDS011;7115;50.150;8.568;2022-12-26T05:48:26;3.57;;;2.40;;
14078;SDS011;7115;50.150;8.568;2022-12-26T05:50:56;3.53;;;2.50;;
14078;SDS011;7115;50.150;8.568;2022-12-26T05:53:24;6.00;;;2.60;;
14078;SDS011;7115;50.150;8.568;2022-12-26T05:55:51;3.77;;;2.70;;
14078;SDS011;7115;50.150;8.568;2022-12-26T05:58:18;4.73;;;2.23;;
14078;SDS011;7115;50.150;8.568;2022-12-26T06:00:45;3.20;;;2.10;;
14078;SDS011;7115;50.150;8.568;2022-12-26T06:03:13;4.33;;;2.53;;
14078;SDS011;7115;50.150;8.568;2022-12-26T06:05:41;5.13;;;2.67;;
14078;SDS011;7115;50.150;8.568;2022-12-26T06:08:08;4.50;;;2.40;;
14078;SDS011;7115;50.150;8.568;2022-12-26T06:10:36;4.60;;;2.43;;
14078;SDS011;7115;50.150;8.568;2022-12-26T06:13:03;6.90;;;2.77;;
14078;SDS011;7115;50.150;8.568;2022-12-26T06:15:30;3.80;;;2.40;;
14078;SDS011;7115;50.150;8.568;2022-12-26T06:17:56;4.20;;;2.30;;
14078;SDS011;7115;50.150;8.568;2022-12-26T06:20:23;6.33;;;2.33;;
14078;SDS011;7115;50.150;8.568;2022-12-26T06:22:52;5.80;;;2.13;;
14078;SDS011;7115;50.150;8.568;2022-12-26T06:25:18;4.80;;;2.47;;
14078;SDS011;7115;50.150;8.568;2022-12-26T06:27:45;7.80;;;2.50;;
14078;SDS011;7115;50.150;8.568;2022-12-26T06:30:12;4.13;;;2.37;;
14078;SDS011;7115;50.150;8.568;2022-12-26T06:32:39;3.30;;;2.47;;
14078;SDS011;7115;50.150;8.568;2022-12-26T06:35:06;3.80;;;2.10;;
14078;SDS011;7115;50.150;8.568;2022-12-26T06:37:33;5.67;;;2.30;;
14078;SDS011;7115;50.150;8.568;2022-12-26T06:40:02;2.97;;;1.90;;
14078;SDS011;7115;50.150;8.568;2022-12-26T06:42:30;3.40;;;2.23;;
14078;SDS011;7115;50.150;8.568;2022-12-26T06:44:57;3.83;;;2.23;;
14078;SDS011;7115;50.150;8.568;2022-12-26T06:47:23;5.17;;;2.13;;
14078;SDS011;7115;50.150;8.568;2022-12-26T06:49:50;3.50;;;2.20;;
14078;SDS011;7115;50.150;8.568;2022-12-26T06:52:18;3.17;;;2.10;;
14078;SDS011;7115;50.150;8.568;2022-12-26T06:54:44;5.70;;;2.17;;
14078;SDS011;7115;50.150;8.568;2022-12-26T06:57:13;6.13;;;2.10;;
14078;SDS011;7115;50.150;8.568;2022-12-26T06:59:40;5.60;;;2.60;;
14078;SDS011;7115;50.150;8.568;2022-12-26T07:02:08;6.10;;;3.70;;
14078;SDS011;7115;50.150;8.568;2022-12-26T07:04:35;5.47;;;2.90;;
14078;SDS011;7115;50.150;8.568;2022-12-26T07:07:02;6.37;;;2.33;;
14078;SDS011;7115;50.150;8.568;2022-12-26T07:09:29;3.47;;;2.10;;
14078;SDS011;7115;50.150;8.568;2022-12-26T07:11:59;4.77;;;2.30;;
14078;SDS011;7115;50.150;8.568;2022-12-26T07:14:27;4.00;;;2.30;;
14078;SDS011;7115;50.150;8.568;2022-12-26T07:16:54;5.97;;;2.40;;
14078;SDS011;7115;50.150;8.568;2022-12-26T07:19:21;5.13;;;2.40;;
14078;SDS011;7115;50.150;8.568;2022-12-26T07:21:48;4.00;;;2.40;;
14078;SDS011;7115;50.150;8.568;2022-12-26T07:24:15;3.90;;;2.10;;
14078;SDS011;7115;50.150;8.568;2022-12-26T07:26:44;3.23;;;2.13;;
14078;SDS011;7115;50.150;8.568;2022-12-26T07:29:11;5.50;;;2.60;;
14078;SDS011;7115;50.150;8.568;2022-12-26T07:31:41;4.53;;;2.27;;
14078;SDS011;7115;50.150;8.568;2022-12-26T07:34:08;5.43;;;2.60;;
14078;SDS011;7115;50.150;8.568;2022-12-26T07:36:34;9.23;;;2.53;;
14078;SDS011;7115;50.150;8.568;2022-12-26T07:39:02;4.13;;;2.30;;
14078;SDS011;7115;50.150;8.568;2022-12-26T07:41:29;5.77;;;2.50;;
14078;SDS011;7115;50.150;8.568;2022-12-26T07:44:14;4.40;;;2.40;;
14078;SDS011;7115;50.150;8.568;2022-12-26T07:46:43;8.03;;;2.60;;
14078;SDS011;7115;50.150;8.568;2022-12-26T07:49:12;7.87;;;2.37;;
14078;SDS011;7115;50.150;8.568;2022-12-26T07:51:39;5.47;;;2.87;;
14078;SDS011;7115;50.150;8.568;2022-12-26T07:54:07;5.87;;;2.67;;
14078;SDS011;7115;50.150;8.568;2022-12-26T07:56:37;4.80;;;2.23;;
14078;SDS011;7115;50.150;8.568;2022-12-26T07:59:04;4.93;;;2.60;;
14078;SDS011;7115;50.150;8.568;2022-12-26T08:01:31;8.53;;;2.90;;
14078;SDS011;7115;50.150;8.568;2022-12-26T08:03:59;5.50;;;2.70;;
14078;SDS011;7115;50.150;8.568;2022-12-26T08:06:26;4.80;;;2.47;;
14078;SDS011;7115;50.150;8.568;2022-12-26T08:08:53;5.20;;;3.20;;
14078;SDS011;7115;50.150;8.568;2022-12-26T08:11:21;4.30;;;3.30;;
14078;SDS011;7115;50.150;8.568;2022-12-26T08:13:49;7.87;;;2.90;;
14078;SDS011;7115;50.150;8.568;2022-12-26T08:16:17;3.90;;;2.80;;
14078;SDS011;7115;50.150;8.568;2022-12-26T08:18:44;5.67;;;2.70;;
14078;SDS011;7115;50.150;8.568;2022-12-26T08:21:12;6.17;;;2.63;;
14078;SDS011;7115;50.150;8.568;2022-12-26T08:23:39;9.33;;;3.40;;
14078;SDS011;7115;50.150;8.568;2022-12-26T08:26:06;5.93;;;3.50;;
14078;SDS011;7115;50.150;8.568;2022-12-26T08:28:35;6.50;;;3.47;;
14078;SDS011;7115;50.150;8.568;2022-12-26T08:31:04;4.03;;;3.13;;
14078;SDS011;7115;50.150;8.568;2022-12-26T08:33:32;4.97;;;3.17;;
14078;SDS011;7115;50.150;8.568;2022-12-26T08:36:00;6.50;;;3.37;;
14078;SDS011;7115;50.150;8.568;2022-12-26T08:38:29;7.00;;;3.60;;
14078;SDS011;7115;50.150;8.568;2022-12-26T08:40:59;6.53;;;3.27;;
14078;SDS011;7115;50.150;8.568;2022-12-26T08:43:26;4.93;;;3.03;;
14078;SDS011;7115;50.150;8.568;2022-12-26T08:46:13;5.40;;;2.97;;
14078;SDS011;7115;50.150;8.568;2022-12-26T08:48:40;5.93;;;3.03;;
14078;SDS011;7115;50.150;8.568;2022-12-26T08:51:08;6.23;;;2.77;;
14078;SDS011;7115;50.150;8.568;2022-12-26T08:53:39;9.07;;;3.60;;
14078;SDS011;7115;50.150;8.568;2022-12-26T08:56:07;5.67;;;2.63;;
14078;SDS011;7115;50.150;8.568;2022-12-26T08:58:36;5.77;;;2.67;;
14078;SDS011;7115;50.150;8.568;2022-12-26T09:01:07;6.20;;;2.90;;
14078;SDS011;7115;50.150;8.568;2022-12-26T09:03:36;3.57;;;2.53;;
14078;SDS011;7115;50.150;8.568;2022-12-26T09:06:04;8.43;;;3.47;;
14078;SDS011;7115;50.150;8.568;2022-12-26T09:08:33;5.70;;;3.20;;
14078;SDS011;7115;50.150;8.568;2022-12-26T09:11:03;6.13;;;3.40;;
14078;SDS011;7115;50.150;8.568;2022-12-26T09:13:31;5.90;;;3.27;;
14078;SDS011;7115;50.150;8.568;2022-12-26T09:16:03;5.43;;;3.50;;
14078;SDS011;7115;50.150;8.568;2022-12-26T09:18:31;9.37;;;3.37;;
14078;SDS011;7115;50.150;8.568;2022-12-26T09:20:59;7.17;;;3.23;;
14078;SDS011;7115;50.150;8.568;2022-12-26T09:23:26;6.73;;;3.43;;
14078;SDS011;7115;50.150;8.568;2022-12-26T09:25:53;8.53;;;3.33;;
14078;SDS011;7115;50.150;8.568;2022-12-26T09:28:22;5.80;;;3.53;;
14078;SDS011;7115;50.150;8.568;2022-12-26T09:30:49;8.40;;;3.63;;
14078;SDS011;7115;50.150;8.568;2022-12-26T09:33:16;6.27;;;3.43;;
14078;SDS011;7115;50.150;8.568;2022-12-26T09:35:42;5.33;;;3.13;;
14078;SDS011;7115;50.150;8.568;2022-12-26T09:38:09;7.50;;;3.17;;
14078;SDS011;7115;50.150;8.568;2022-12-26T09:40:41;5.40;;;3.60;;
14078;SDS011;7115;50.150;8.568;2022-12-26T09:43:18;9.27;;;3.30;;
14078;SDS011;7115;50.150;8.568;2022-12-26T09:45:55;10.03;;;5.90;;
14078;SDS011;7115;50.150;8.568;2022-12-26T09:48:33;7.43;;;3.50;;
14078;SDS011;7115;50.150;8.568;2022-12-26T09:51:04;5.90;;;2.97;;
14078;SDS011;7115;50.150;8.568;2022-12-26T09:53:35;10.93;;;3.70;;
14078;SDS011;7115;50.150;8.568;2022-12-26T09:56:10;7.60;;;3.90;;
14078;SDS011;7115;50.150;8.568;2022-12-26T09:59:05;7.20;;;3.47;;
14078;SDS011;7115;50.150;8.568;2022-12-26T10:01:39;7.37;;;3.30;;
14078;SDS011;7115;50.150;8.568;2022-12-26T10:04:07;7.53;;;3.23;;
14078;SDS011;7115;50.150;8.568;2022-12-26T10:06:42;6.37;;;3.13;;
14078;SDS011;7115;50.150;8.568;2022-12-26T10:09:33;5.17;;;3.37;;
14078;SDS011;7115;50.150;8.568;2022-12-26T10:12:21;5.43;;;3.00;;
14078;SDS011;7115;50.150;8.568;2022-12-26T10:14:58;7.17;;;3.23;;
14078;SDS011;7115;50.150;8.568;2022-12-26T10:17:48;6.90;;;2.57;;
14078;SDS011;7115;50.150;8.568;2022-12-26T10:20:42;4.83;;;2.57;;
14078;SDS011;7115;50.150;8.568;2022-12-26T10:23:23;6.20;;;3.53;;
14078;SDS011;7115;50.150;8.568;2022-12-26T10:26:17;4.53;;;3.10;;
14078;SDS011;7115;50.150;8.568;2022-12-26T10:28:50;7.73;;;3.03;;
14078;SDS011;7115;50.150;8.568;2022-12-26T10:31:23;5.07;;;2.57;;
14078;SDS011;7115;50.150;8.568;2022-12-26T10:34:06;5.50;;;2.53;;
14078;SDS011;7115;50.150;8.568;2022-12-26T10:36:39;3.70;;;2.77;;
14078;SDS011;7115;50.150;8.568;2022-12-26T10:39:17;3.67;;;2.20;;
14078;SDS011;7115;50.150;8.568;2022-12-26T10:41:49;3.93;;;2.77;;
14078;SDS011;7115;50.150;8.568;2022-12-26T10:44:32;7.30;;;2.40;;
14078;SDS011;7115;50.150;8.568;2022-12-26T10:49:55;3.20;;;2.13;;
14078;SDS011;7115;50.150;8.568;2022-12-26T10:52:26;3.70;;;2.17;;
14078;SDS011;7115;50.150;8.568;2022-12-26T10:55:16;4.50;;;2.03;;
14078;SDS011;7115;50.150;8.568;2022-12-26T10:57:54;2.67;;;2.03;;
14078;SDS011;7115;50.150;8.568;2022-12-26T11:00:26;3.67;;;2.20;;
14078;SDS011;7115;50.150;8.568;2022-12-26T11:05:53;5.97;;;2.60;;
14078;SDS011;7115;50.150;8.568;2022-12-26T11:08:45;3.50;;;1.70;;
14078;SDS011;7115;50.150;8.568;2022-12-26T11:11:19;3.33;;;2.07;;
14078;SDS011;7115;50.150;8.568;2022-12-26T11:16:59;2.57;;;1.37;;
14078;SDS011;7115;50.150;8.568;2022-12-26T11:19:31;3.23;;;1.40;;
14078;SDS011;7115;50.150;8.568;2022-12-26T11:22:13;4.77;;;1.30;;
14078;SDS011;7115;50.150;8.568;2022-12-26T11:25:00;2.50;;;1.40;;
14078;SDS011;7115;50.150;8.568;2022-12-26T11:27:53;3.53;;;1.30;;
14078;SDS011;7115;50.150;8.568;2022-12-26T11:30:26;4.20;;;1.30;;
14078;SDS011;7115;50.150;8.568;2022-12-26T11:33:06;2.73;;;1.77;;
14078;SDS011;7115;50.150;8.568;2022-12-26T11:35:59;1.60;;;1.03;;
14078;SDS011;7115;50.150;8.568;2022-12-26T11:38:31;2.43;;;1.20;;
14078;SDS011;7115;50.150;8.568;2022-12-26T11:41:10;2.03;;;1.27;;
14078;SDS011;7115;50.150;8.568;2022-12-26T11:44:02;3.80;;;1.63;;
14078;SDS011;7115;50.150;8.568;2022-12-26T11:46:50;6.37;;;1.90;;
14078;SDS011;7115;50.150;8.568;2022-12-26T11:49:24;2.60;;;1.70;;
14078;SDS011;7115;50.150;8.568;2022-12-26T11:51:59;2.57;;;1.60;;
14078;SDS011;7115;50.150;8.568;2022-12-26T11:54:30;3.33;;;1.60;;
14078;SDS011;7115;50.150;8.568;2022-12-26T11:57:08;3.23;;;1.70;;
14078;SDS011;7115;50.150;8.568;2022-12-26T11:59:39;1.30;;;1.13;;
14078;SDS011;7115;50.150;8.568;2022-12-26T12:02:25;2.03;;;0.90;;
14078;SDS011;7115;50.150;8.568;2022-12-26T12:05:15;2.33;;;1.20;;
14078;SDS011;7115;50.150;8.568;2022-12-26T12:07:59;2.37;;;1.10;;
14078;SDS011;7115;50.150;8.568;2022-12-26T12:10:57;2.43;;;1.33;;
14078;SDS011;7115;50.150;8.568;2022-12-26T12:13:37;2.50;;;1.10;;
14078;SDS011;7115;50.150;8.568;2022-12-26T12:16:25;2.97;;;1.20;;
14078;SDS011;7115;50.150;8.568;2022-12-26T12:19:13;1.10;;;0.90;;
14078;SDS011;7115;50.150;8.568;2022-12-26T12:21:54;1.47;;;1.07;;
14078;SDS011;7115;50.150;8.568;2022-12-26T12:28:05;1.83;;;1.00;;
14078;SDS011;7115;50.150;8.568;2022-12-26T12:31:03;2.00;;;1.20;;
14078;SDS011;7115;50.150;8.568;2022-12-26T12:33:43;2.07;;;1.10;;
14078;SDS011;7115;50.150;8.568;2022-12-26T12:36:17;2.73;;;1.27;;
14078;SDS011;7115;50.150;8.568;2022-12-26T12:38:52;3.97;;;1.40;;
14078;SDS011;7115;50.150;8.568;2022-12-26T12:44:39;3.43;;;1.60;;
14078;SDS011;7115;50.150;8.568;2022-12-26T12:47:23;3.00;;;1.27;;
14078;SDS011;7115;50.150;8.568;2022-12-26T12:50:22;2.73;;;1.03;;
14078;SDS011;7115;50.150;8.568;2022-12-26T12:52:59;4.20;;;1.13;;
14078;SDS011;7115;50.150;8.568;2022-12-26T12:55:39;1.90;;;1.00;;
14078;SDS011;7115;50.150;8.568;2022-12-26T12:58:17;2.17;;;1.13;;
14078;SDS011;7115;50.150;8.568;2022-12-26T13:01:01;3.13;;;1.50;;
14078;SDS011;7115;50.150;8.568;2022-12-26T13:03:38;1.93;;;1.13;;
14078;SDS011;7115;50.150;8.568;2022-12-26T13:06:12;2.33;;;1.40;;
14078;SDS011;7115;50.150;8.568;2022-12-26T13:08:47;5.47;;;1.57;;
14078;SDS011;7115;50.150;8.568;2022-12-26T13:11:19;4.27;;;1.63;;
14078;SDS011;7115;50.150;8.568;2022-12-26T13:14:11;2.57;;;1.20;;
14078;SDS011;7115;50.150;8.568;2022-12-26T13:17:04;3.50;;;1.57;;
14078;SDS011;7115;50.150;8.568;2022-12-26T13:19:55;1.80;;;1.30;;
14078;SDS011;7115;50.150;8.568;2022-12-26T13:22:30;2.97;;;1.43;;
14078;SDS011;7115;50.150;8.568;2022-12-26T13:25:21;6.57;;;1.53;;
14078;SDS011;7115;50.150;8.568;2022-12-26T13:27:51;1.97;;;1.23;;
14078;SDS011;7115;50.150;8.568;2022-12-26T13:30:25;3.63;;;1.40;;
14078;SDS011;7115;50.150;8.568;2022-12-26T13:32:56;2.03;;;1.40;;
14078;SDS011;7115;50.150;8.568;2022-12-26T13:38:16;2.33;;;1.23;;
14078;SDS011;7115;50.150;8.568;2022-12-26T13:40:44;3.50;;;1.37;;
14078;SDS011;7115;50.150;8.568;2022-12-26T13:43:16;3.10;;;1.20;;
14078;SDS011;7115;50.150;8.568;2022-12-26T13:49:24;2.90;;;1.10;;
14078;SDS011;7115;50.150;8.568;2022-12-26T13:51:54;3.00;;;0.67;;
14078;SDS011;7115;50.150;8.568;2022-12-26T13:54:24;1.93;;;0.90;;
14078;SDS011;7115;50.150;8.568;2022-12-26T13:56:58;2.00;;;0.80;;
14078;SDS011;7115;50.150;8.568;2022-12-26T13:59:39;2.80;;;0.83;;
14078;SDS011;7115;50.150;8.568;2022-12-26T14:02:20;0.87;;;0.50;;
14078;SDS011;7115;50.150;8.568;2022-12-26T14:05:32;2.07;;;0.60;;
14078;SDS011;7115;50.150;8.568;2022-12-26T14:08:23;0.97;;;0.60;;
14078;SDS011;7115;50.150;8.568;2022-12-26T14:11:01;1.27;;;0.50;;
14078;SDS011;7115;50.150;8.568;2022-12-26T14:13:56;1.17;;;0.70;;
14078;SDS011;7115;50.150;8.568;2022-12-26T14:16:34;0.87;;;0.63;;
14078;SDS011;7115;50.150;8.568;2022-12-26T14:19:13;1.43;;;0.80;;
14078;SDS011;7115;50.150;8.568;2022-12-26T14:21:58;1.03;;;0.60;;
14078;SDS011;7115;50.150;8.568;2022-12-26T14:24:35;2.60;;;0.50;;
14078;SDS011;7115;50.150;8.568;2022-12-26T14:30:11;3.40;;;0.40;;
14078;SDS011;7115;50.150;8.568;2022-12-26T14:33:04;1.33;;;0.50;;
14078;SDS011;7115;50.150;8.568;2022-12-26T14:35:43;0.70;;;0.40;;
14078;SDS011;7115;50.150;8.568;2022-12-26T14:41:23;1.43;;;0.43;;
14078;SDS011;7115;50.150;8.568;2022-12-26T14:44:14;1.17;;;0.33;;
14078;SDS011;7115;50.150;8.568;2022-12-26T14:47:04;0.83;;;0.53;;
14078;SDS011;7115;50.150;8.568;2022-12-26T14:49:40;0.63;;;0.30;;
14078;SDS011;7115;50.150;8.568;2022-12-26T15:04:31;1.90;;;0.80;;
14078;SDS011;7115;50.150;8.568;2022-12-26T15:07:18;0.50;;;0.40;;
14078;SDS011;7115;50.150;8.568;2022-12-26T15:10:15;1.70;;;0.40;;
14078;SDS011;7115;50.150;8.568;2022-12-26T15:13:02;2.13;;;0.40;;
14078;SDS011;7115;50.150;8.568;2022-12-26T15:15:50;3.07;;;0.67;;
14078;SDS011;7115;50.150;8.568;2022-12-26T15:18:39;3.03;;;0.60;;
14078;SDS011;7115;50.150;8.568;2022-12-26T15:21:48;0.50;;;0.33;;
14078;SDS011;7115;50.150;8.568;2022-12-26T15:27:58;1.00;;;0.40;;
14078;SDS011;7115;50.150;8.568;2022-12-26T15:30:47;1.93;;;0.50;;
14078;SDS011;7115;50.150;8.568;2022-12-26T15:33:30;2.17;;;0.70;;
14078;SDS011;7115;50.150;8.568;2022-12-26T15:36:05;2.60;;;0.77;;
14078;SDS011;7115;50.150;8.568;2022-12-26T15:38:42;1.80;;;0.60;;
14078;SDS011;7115;50.150;8.568;2022-12-26T15:41:15;0.60;;;0.43;;
14078;SDS011;7115;50.150;8.568;2022-12-26T15:43:56;0.63;;;0.50;;
14078;SDS011;7115;50.150;8.568;2022-12-26T15:46:32;0.80;;;0.40;;
14078;SDS011;7115;50.150;8.568;2022-12-26T15:49:10;2.53;;;0.60;;
14078;SDS011;7115;50.150;8.568;2022-12-26T15:51:58;2.57;;;0.77;;
14078;SDS011;7115;50.150;8.568;2022-12-26T15:54:38;1.83;;;0.33;;
14078;SDS011;7115;50.150;8.568;2022-12-26T15:57:37;4.83;;;0.60;;
14078;SDS011;7115;50.150;8.568;2022-12-26T16:00:10;2.10;;;0.60;;
14078;SDS011;7115;50.150;8.568;2022-12-26T16:02:45;1.20;;;0.60;;
14078;SDS011;7115;50.150;8.568;2022-12-26T16:08:18;1.43;;;0.77;;
14078;SDS011;7115;50.150;8.568;2022-12-26T16:11:14;2.27;;;0.40;;
14078;SDS011;7115;50.150;8.568;2022-12-26T16:13:51;3.63;;;0.80;;
14078;SDS011;7115;50.150;8.568;2022-12-26T16:16:25;0.93;;;0.57;;
14078;SDS011;7115;50.150;8.568;2022-12-26T16:18:57;0.77;;;0.60;;
14078;SDS011;7115;50.150;8.568;2022-12-26T16:21:39;2.93;;;0.83;;
14078;SDS011;7115;50.150;8.568;2022-12-26T16:24:24;1.20;;;0.50;;
14078;SDS011;7115;50.150;8.568;2022-12-26T16:26:54;2.10;;;0.80;;
14078;SDS011;7115;50.150;8.568;2022-12-26T16:29:27;2.77;;;0.80;;
14078;SDS011;7115;50.150;8.568;2022-12-26T16:32:00;1.10;;;0.70;;
14078;SDS011;7115;50.150;8.568;2022-12-26T16:34:29;1.90;;;0.90;;
14078;SDS011;7115;50.150;8.568;2022-12-26T16:36:59;1.20;;;0.70;;
14078;SDS011;7115;50.150;8.568;2022-12-26T16:39:27;5.80;;;1.17;;
14078;SDS011;7115;50.150;8.568;2022-12-26T16:42:00;1.30;;;0.80;;
14078;SDS011;7115;50.150;8.568;2022-12-26T16:44:30;1.30;;;0.70;;
14078;SDS011;7115;50.150;8.568;2022-12-26T16:47:00;1.93;;;0.60;;
14078;SDS011;7115;50.150;8.568;2022-12-26T16:49:33;3.00;;;1.00;;